createdAt,value
2022-09-26T00:01:38.517Z,100780.34
2022-09-26T00:04:24.622Z,100780.34
2022-09-26T00:06:55.936Z,100769.97
2022-09-26T00:09:26.811Z,100771.84
2022-09-26T00:11:54.489Z,100763.97
2022-09-26T00:14:27.624Z,100761.44
2022-09-26T00:16:55.907Z,100760.56
2022-09-26T00:19:23.454Z,100766.69
2022-09-26T00:21:50.675Z,100751.88
2022-09-26T00:24:18.284Z,100751.78
2022-09-26T00:26:45.749Z,100746.47
2022-09-26T00:29:14.039Z,100737.75
2022-09-26T00:31:45.968Z,100736.81
2022-09-26T00:34:16.203Z,100730.66
2022-09-26T00:36:46.654Z,100731.50
2022-09-26T00:39:16.055Z,100726.25
2022-09-26T00:41:44.085Z,100716.63
2022-09-26T00:44:47.458Z,100712.13
2022-09-26T00:47:23.493Z,100713.84
2022-09-26T00:49:55.842Z,100707.66
2022-09-26T00:52:34.448Z,100706.63
2022-09-26T00:55:05.947Z,100696.91
2022-09-26T00:57:41.810Z,100689.81
2022-09-26T01:00:11.809Z,100680.16
2022-09-26T01:02:39.924Z,100687.09
2022-09-26T01:05:08.516Z,100680.91
2022-09-26T01:07:36.034Z,100673.06
2022-09-26T01:10:05.421Z,100667.81
2022-09-26T01:12:36.518Z,100658.19
2022-09-26T01:15:07.448Z,100653.03
2022-09-26T01:17:37.913Z,100648.63
2022-09-26T01:20:17.169Z,100652.94
2022-09-26T01:22:58.974Z,100645.09
2022-09-26T01:26:18.199Z,100631.13
2022-09-26T01:29:29.703Z,100627.47
2022-09-26T01:32:36.852Z,100614.47
2022-09-26T01:35:39.132Z,100609.97
2022-09-26T01:38:36.548Z,100603.06
2022-09-26T01:41:36.710Z,100596.03
2022-09-26T01:44:32.938Z,100589.00
2022-09-26T01:47:09.352Z,100586.38
2022-09-26T01:50:00.198Z,100583.75
2022-09-26T01:52:45.281Z,100567.09
2022-09-26T01:55:28.270Z,100563.66
2022-09-26T01:58:29.020Z,100554.75
2022-09-26T02:01:02.955Z,100554.66
2022-09-26T02:03:38.284Z,100550.28
2022-09-26T02:06:16.129Z,100542.50
2022-09-26T02:09:01.662Z,100537.34
2022-09-26T02:11:29.886Z,100532.09
2022-09-26T02:14:25.486Z,100531.16
2022-09-26T02:16:59.130Z,100524.25
2022-09-26T02:19:31.231Z,100517.31
2022-09-26T02:22:01.333Z,100516.38
2022-09-26T02:24:29.287Z,100512.06
2022-09-26T02:26:57.361Z,100502.41
2022-09-26T02:29:25.399Z,100498.66
2022-09-26T02:32:03.138Z,100496.88
2022-09-26T02:34:30.688Z,100493.44
2022-09-26T02:37:01.116Z,100496.06
2022-09-26T02:39:32.333Z,100486.50
2022-09-26T02:43:06.297Z,100485.56
2022-09-26T02:45:52.006Z,100475.00
2022-09-26T02:49:03.739Z,100470.66
2022-09-26T02:51:54.352Z,100473.47
2022-09-26T02:55:03.652Z,100462.91
2022-09-26T02:58:05.538Z,100470.75
2022-09-26T03:01:21.750Z,100463.75
2022-09-26T03:04:16.171Z,100458.53
2022-09-26T03:06:48.381Z,100455.81
2022-09-26T03:09:18.401Z,100453.28
2022-09-26T03:11:47.967Z,100453.28
2022-09-26T03:14:18.011Z,100454.13
2022-09-26T03:16:50.105Z,100442.88
2022-09-26T03:19:47.075Z,100446.63
2022-09-26T03:22:16.330Z,100440.84
2022-09-26T03:24:46.221Z,100443.06
2022-09-26T03:27:16.559Z,100425.28
2022-09-26T03:29:46.000Z,100417.03
2022-09-26T03:32:19.039Z,100411.34
2022-09-26T03:34:46.399Z,100412.44
2022-09-26T03:37:17.121Z,100406.66
2022-09-26T03:39:45.114Z,100401.66
2022-09-26T03:42:24.496Z,100401.00
2022-09-26T03:44:53.219Z,100392.47
2022-09-26T03:47:41.911Z,100391.00
2022-09-26T03:50:09.701Z,100392.75
2022-09-26T03:52:36.830Z,100388.56
2022-09-26T03:55:05.195Z,100385.84
2022-09-26T03:57:32.363Z,100376.13
2022-09-26T04:00:12.338Z,100375.19
2022-09-26T04:02:46.813Z,100377.53
2022-09-26T04:05:28.560Z,100368.53
2022-09-26T04:07:56.139Z,100363.25
2022-09-26T04:10:24.230Z,100363.16
2022-09-26T04:12:51.472Z,100349.13
2022-09-26T04:15:18.737Z,100342.88
2022-09-26T04:17:46.369Z,100341.00
2022-09-26T04:20:14.203Z,100331.34
2022-09-26T04:22:43.131Z,100324.25
2022-09-26T04:25:10.315Z,100319.03
2022-09-26T04:27:38.077Z,100309.38
2022-09-26T04:30:06.201Z,100293.56
2022-09-26T04:32:40.574Z,100280.38
2022-09-26T04:35:27.969Z,100294.22
2022-09-26T04:37:55.117Z,100299.44
2022-09-26T04:40:22.578Z,100278.59
2022-09-26T04:43:11.057Z,100278.50
2022-09-26T04:45:43.252Z,100269.78
2022-09-26T04:48:12.414Z,100268.88
2022-09-26T04:51:13.171Z,100267.91
2022-09-26T04:53:41.880Z,100258.41
2022-09-26T04:56:23.568Z,100249.38
2022-09-26T04:58:51.481Z,100234.63
2022-09-26T05:01:21.018Z,100228.63
2022-09-26T05:04:27.313Z,100216.59
2022-09-26T05:06:57.846Z,100223.88
2022-09-26T05:09:31.760Z,100232.56
2022-09-26T05:12:07.784Z,100219.41
2022-09-26T05:14:40.770Z,100213.03
2022-09-26T05:17:10.135Z,100197.06
2022-09-26T05:19:37.900Z,100198.38
2022-09-26T05:22:34.770Z,100193.50
2022-09-26T05:25:23.034Z,100195.47
2022-09-26T05:27:50.692Z,100176.72
2022-09-26T05:30:19.280Z,100181.25
2022-09-26T05:32:48.443Z,100175.38
2022-09-26T05:35:17.107Z,100177.34
2022-09-26T05:37:44.941Z,100174.47
2022-09-26T05:40:47.966Z,100171.28
2022-09-26T05:43:15.535Z,100172.50
2022-09-26T05:45:43.125Z,100173.59
2022-09-26T05:48:13.070Z,100163.41
2022-09-26T05:50:43.485Z,100162.69
2022-09-26T05:53:11.033Z,100163.59
2022-09-26T05:55:38.484Z,100161.94
2022-09-26T05:58:06.354Z,100158.19
2022-09-26T06:01:01.197Z,100166.03
2022-09-26T06:03:29.026Z,100158.97
2022-09-26T06:06:15.470Z,100157.81
2022-09-26T06:08:44.175Z,100149.13
2022-09-26T06:11:25.010Z,100138.75
2022-09-26T06:13:52.877Z,100126.44
2022-09-26T06:16:21.422Z,100127.38
2022-09-26T06:18:51.351Z,100114.31
2022-09-26T06:21:20.272Z,100113.44
2022-09-26T06:23:51.377Z,100102.06
2022-09-26T06:26:27.002Z,100091.31
2022-09-26T06:28:58.033Z,100089.41
2022-09-26T06:31:27.695Z,100077.94
2022-09-26T06:34:09.845Z,100079.53
2022-09-26T06:37:06.217Z,100064.56
2022-09-26T06:39:36.973Z,100051.81
2022-09-26T06:42:07.415Z,100058.56
2022-09-26T06:44:50.167Z,100054.91
2022-09-26T06:47:28.526Z,100038.25
2022-09-26T06:50:14.636Z,100039.44
2022-09-26T06:52:45.415Z,100040.19
2022-09-26T06:55:15.093Z,100028.78
2022-09-26T06:57:44.407Z,100022.53
2022-09-26T07:00:18.426Z,100012.78
2022-09-26T07:03:01.603Z,100005.16
2022-09-26T07:05:56.181Z,100004.41
2022-09-26T07:08:37.727Z,100001.91
2022-09-26T07:11:35.302Z,100012.28
2022-09-26T07:14:04.827Z,99990.31
2022-09-26T07:16:32.130Z,99985.50
2022-09-26T07:19:20.724Z,99995.03
2022-09-26T07:22:07.393Z,99979.41
2022-09-26T07:24:46.271Z,99974.09
2022-09-26T07:27:14.150Z,99963.84
2022-09-26T07:29:41.622Z,99961.22
2022-09-26T07:32:08.902Z,99959.53
2022-09-26T07:34:43.958Z,99956.63
2022-09-26T07:37:12.884Z,99956.41
2022-09-26T07:39:40.128Z,99959.59
2022-09-26T07:42:08.663Z,99955.91
2022-09-26T07:47:42.534Z,99951.72
2022-09-26T07:50:29.992Z,99952.56
2022-09-26T07:53:12.662Z,99945.41
2022-09-26T07:56:12.165Z,99947.00
2022-09-26T07:59:11.417Z,99955.28
2022-09-26T08:01:57.989Z,99944.56
2022-09-26T08:04:36.995Z,99930.34
2022-09-26T08:07:04.184Z,99938.19
2022-09-26T08:09:34.642Z,99928.44
2022-09-26T08:12:20.129Z,99933.47
2022-09-26T08:15:08.566Z,99925.28
2022-09-26T08:17:41.834Z,99911.88
2022-09-26T08:20:10.911Z,99917.81
2022-09-26T08:22:38.324Z,99909.75
2022-09-26T08:25:07.239Z,99905.97
2022-09-26T08:27:43.556Z,99892.53
2022-09-26T08:30:11.843Z,99908.34
2022-09-26T08:32:39.023Z,99897.63
2022-09-26T08:35:07.744Z,99897.53
2022-09-26T08:37:34.853Z,99888.72
2022-09-26T08:40:28.537Z,99897.41
2022-09-26T08:43:41.002Z,99899.09
2022-09-26T08:47:02.033Z,99894.56
2022-09-26T08:50:14.398Z,99895.31
2022-09-26T08:53:05.503Z,99893.53
2022-09-26T08:55:44.354Z,99899.28
2022-09-26T08:58:26.608Z,99895.50
2022-09-26T09:01:03.383Z,99894.44
2022-09-26T09:03:53.284Z,99897.69
2022-09-26T09:06:21.153Z,99890.28
2022-09-26T09:08:56.223Z,99890.19
2022-09-26T09:12:07.062Z,99880.44
2022-09-26T09:14:45.025Z,99872.78
2022-09-26T09:18:27.786Z,99878.72
2022-09-26T09:21:32.550Z,99864.78
2022-09-26T09:24:44.075Z,99864.63
2022-09-26T09:28:02.593Z,99850.38
2022-09-26T09:31:01.870Z,99855.34
2022-09-26T09:33:48.708Z,99853.88
2022-09-26T09:36:26.018Z,99836.38
2022-09-26T09:39:33.312Z,99842.56
2022-09-26T09:42:34.301Z,99837.22
2022-09-26T09:45:13.044Z,99824.00
2022-09-26T09:47:40.334Z,99822.31
2022-09-26T09:50:42.946Z,99816.13
2022-09-26T09:53:32.359Z,99807.31
2022-09-26T09:56:11.630Z,99796.81
2022-09-26T09:59:12.283Z,99801.03
2022-09-26T10:02:24.345Z,99795.88
2022-09-26T10:05:31.025Z,99788.97
2022-09-26T10:07:59.232Z,99776.94
2022-09-26T10:11:23.070Z,99768.00
2022-09-26T10:14:03.123Z,99769.69
2022-09-26T10:17:18.814Z,99754.78
2022-09-26T10:20:01.170Z,99750.41
2022-09-26T10:22:45.132Z,99759.69
2022-09-26T10:25:27.925Z,99761.38
2022-09-26T10:27:59.303Z,99750.06
2022-09-26T10:30:33.442Z,99743.03
2022-09-26T10:33:05.677Z,99748.38
2022-09-26T10:35:46.285Z,99744.06
2022-09-26T10:38:27.351Z,99743.13
2022-09-26T10:41:23.245Z,99739.78
2022-09-26T10:43:56.155Z,99726.69
2022-09-26T10:46:47.309Z,99723.22
2022-09-26T10:49:54.512Z,99733.81
2022-09-26T10:52:54.066Z,99719.28
2022-09-26T10:55:41.363Z,99722.72
2022-09-26T10:58:17.816Z,99717.72
2022-09-26T11:00:51.679Z,99718.41
2022-09-26T11:03:41.301Z,99719.28
2022-09-26T11:06:40.752Z,99711.31
2022-09-26T11:09:20.710Z,99715.56
2022-09-26T11:12:27.359Z,99709.28
2022-09-26T11:15:00.750Z,99705.84
2022-09-26T11:17:48.329Z,99696.88
2022-09-26T11:20:48.395Z,99698.69
2022-09-26T11:23:51.087Z,99693.34
2022-09-26T11:26:25.571Z,99697.53
2022-09-26T11:29:37.131Z,99694.78
2022-09-26T11:32:19.645Z,99695.00
2022-09-26T11:35:29.728Z,99692.63
2022-09-26T11:38:35.896Z,99699.63
2022-09-26T11:41:39.463Z,99690.09
2022-09-26T11:44:21.485Z,99684.97
2022-09-26T11:47:54.413Z,99692.00
2022-09-26T11:51:24.885Z,99681.50
2022-09-26T11:54:18.923Z,99682.47
2022-09-26T11:56:57.951Z,99680.69
2022-09-26T12:00:12.113Z,99679.09
2022-09-26T12:03:00.471Z,99674.09
2022-09-26T12:05:53.487Z,99672.34
2022-09-26T12:08:25.967Z,99662.06
2022-09-26T12:11:38.046Z,99668.59
2022-09-26T12:14:45.607Z,99672.66
2022-09-26T12:17:19.590Z,99665.63
2022-09-26T12:20:30.483Z,99657.06
2022-09-26T12:23:19.482Z,99654.22
2022-09-26T12:26:17.048Z,99654.22
2022-09-26T12:29:23.758Z,99650.41
2022-09-26T12:32:30.774Z,99647.78
2022-09-26T12:35:22.759Z,99638.75
2022-09-26T12:38:32.408Z,99638.84
2022-09-26T12:41:14.247Z,99634.44
2022-09-26T12:44:12.691Z,99635.19
2022-09-26T12:47:00.073Z,99628.97
2022-09-26T12:49:42.131Z,99626.22
2022-09-26T12:52:32.787Z,99627.09
2022-09-26T12:55:29.719Z,99619.13
2022-09-26T12:58:25.134Z,99607.19
2022-09-26T13:01:08.258Z,99610.63
2022-09-26T13:04:21.014Z,99616.59
2022-09-26T13:07:18.323Z,99613.25
2022-09-26T13:09:58.319Z,99604.31
2022-09-26T13:12:26.447Z,99614.69
2022-09-26T13:15:50.236Z,99606.00
2022-09-26T13:18:28.320Z,99606.84
2022-09-26T13:21:06.024Z,99593.84
2022-09-26T13:23:52.562Z,99596.22
2022-09-26T13:26:45.168Z,99591.69
2022-09-26T13:29:27.205Z,99581.09
2022-09-26T13:32:22.854Z,99584.47
2022-09-26T13:35:13.471Z,99579.91
2022-09-26T13:37:56.659Z,99572.66
2022-09-26T13:40:50.472Z,99579.22
2022-09-26T13:43:56.277Z,99574.69
2022-09-26T13:46:48.350Z,99575.66
2022-09-26T13:49:43.590Z,99567.56
2022-09-26T13:52:20.010Z,99570.28
2022-09-26T13:55:10.759Z,99573.63
2022-09-26T13:57:59.919Z,99560.50
2022-09-26T14:00:38.861Z,99563.13
2022-09-26T14:03:16.648Z,99564.06
2022-09-26T14:05:47.874Z,99561.47
2022-09-26T14:08:42.647Z,99550.25
2022-09-26T14:11:35.164Z,99554.91
2022-09-26T14:14:37.464Z,99549.69
2022-09-26T14:17:43.698Z,99543.69
2022-09-26T14:20:31.830Z,99541.94
2022-09-26T14:23:01.065Z,99533.94
2022-09-26T14:25:46.401Z,99528.59
2022-09-26T14:28:35.408Z,99529.41
2022-09-26T14:31:37.320Z,99511.41
2022-09-26T14:34:26.858Z,99521.28
2022-09-26T14:36:58.997Z,99507.81
2022-09-26T14:39:39.725Z,99507.69
2022-09-26T14:42:21.919Z,99496.63
2022-09-26T14:45:04.921Z,99496.75
2022-09-26T14:48:00.185Z,99505.56
2022-09-26T14:50:34.346Z,99489.13
2022-09-26T14:53:24.850Z,99498.06
2022-09-26T14:56:06.060Z,99498.91
2022-09-26T14:58:39.049Z,99493.53
2022-09-26T15:01:30.775Z,99503.19
2022-09-26T15:04:03.567Z,99493.53
2022-09-26T15:06:39.308Z,99485.66
2022-09-26T15:09:25.318Z,99483.06
2022-09-26T15:12:08.015Z,99485.66
2022-09-26T15:15:17.322Z,99472.69
2022-09-26T15:17:53.778Z,99484.81
2022-09-26T15:20:25.250Z,99477.06
2022-09-26T15:22:57.078Z,99471.81
2022-09-26T15:25:31.824Z,99464.81
2022-09-26T15:28:00.111Z,99468.97
2022-09-26T15:30:38.410Z,99452.41
2022-09-26T15:33:07.343Z,99458.34
2022-09-26T15:35:35.330Z,99455.59
2022-09-26T15:38:11.946Z,99456.59
2022-09-26T15:40:39.220Z,99443.59
2022-09-26T15:43:09.559Z,99447.03
2022-09-26T15:45:46.288Z,99442.63
2022-09-26T15:48:24.943Z,99442.88
2022-09-26T15:50:55.526Z,99445.47
2022-09-26T15:53:42.456Z,99445.47
2022-09-26T15:56:12.834Z,99433.47
2022-09-26T15:58:39.879Z,99432.63
2022-09-26T16:01:18.778Z,99437.75
2022-09-26T16:04:13.387Z,99433.47
2022-09-26T16:06:52.584Z,99430.84
2022-09-26T16:09:36.495Z,99428.34
2022-09-26T16:12:15.704Z,99427.63
2022-09-26T16:14:58.380Z,99420.00
2022-09-26T16:17:49.085Z,99414.88
2022-09-26T16:20:16.429Z,99422.03
2022-09-26T16:22:51.180Z,99419.41
2022-09-26T16:25:20.468Z,99415.97
2022-09-26T16:27:58.317Z,99420.34
2022-09-26T16:30:28.411Z,99415.22
2022-09-26T16:33:13.364Z,99416.22
2022-09-26T16:35:47.276Z,99406.66
2022-09-26T16:38:32.296Z,99407.38
2022-09-26T16:44:39.583Z,99411.66
2022-09-26T16:47:34.454Z,99409.03
2022-09-26T16:50:27.878Z,99409.03
2022-09-26T16:52:56.023Z,99409.28
2022-09-26T16:55:25.368Z,99410.22
2022-09-26T16:57:59.024Z,99406.91
2022-09-26T17:00:52.511Z,99410.47
2022-09-26T17:03:21.256Z,99413.34
2022-09-26T17:05:49.882Z,99415.97
2022-09-26T17:08:18.442Z,99419.56
2022-09-26T17:10:46.379Z,99430.84
2022-09-26T17:13:22.803Z,99424.69
2022-09-26T17:15:55.467Z,99425.75
2022-09-26T17:18:32.430Z,99412.88
2022-09-26T17:21:02.639Z,99403.22
2022-09-26T17:23:40.488Z,99414.66
2022-09-26T17:26:21.525Z,99416.78
2022-09-26T17:28:50.399Z,99417.03
2022-09-26T17:31:20.797Z,99417.03
2022-09-26T17:33:53.099Z,99415.97
2022-09-26T17:36:27.920Z,99413.22
2022-09-26T17:38:59.285Z,99407.88
2022-09-26T17:41:28.784Z,99407.75
2022-09-26T17:44:00.372Z,99406.81
2022-09-26T17:46:28.261Z,99406.69
2022-09-26T17:48:55.965Z,99406.56
2022-09-26T17:51:23.956Z,99404.78
2022-09-26T17:53:52.573Z,99398.81
2022-09-26T17:56:20.481Z,99395.47
2022-09-26T17:58:51.795Z,99394.66
2022-09-26T18:01:34.659Z,99398.22
2022-09-26T18:04:07.153Z,99402.63
2022-09-26T18:06:34.691Z,99400.94
2022-09-26T18:09:07.643Z,99396.56
2022-09-26T18:11:36.165Z,99395.72
2022-09-26T18:14:06.090Z,99408.94
2022-09-26T18:16:33.278Z,99403.94
2022-09-26T18:19:04.699Z,99401.44
2022-09-26T18:21:35.121Z,99412.88
2022-09-26T18:24:06.656Z,99404.16
2022-09-26T18:26:47.478Z,99405.97
2022-09-26T18:29:39.060Z,99398.22
2022-09-26T18:32:14.998Z,99394.78
2022-09-26T18:34:42.182Z,99394.03
2022-09-26T18:37:09.305Z,99397.41
2022-09-26T18:39:36.449Z,99393.22
2022-09-26T18:42:09.283Z,99403.13
2022-09-26T18:44:36.689Z,99401.44
2022-09-26T18:47:10.837Z,99399.66
2022-09-26T18:49:38.192Z,99397.16
2022-09-26T18:52:12.074Z,99395.50
2022-09-26T18:54:41.410Z,99399.06
2022-09-26T18:57:27.143Z,99402.63
2022-09-26T18:59:54.307Z,99401.09
2022-09-26T19:02:26.467Z,99396.81
2022-09-26T19:04:56.946Z,99403.84
2022-09-26T19:07:24.589Z,99409.19
2022-09-26T19:09:52.032Z,99409.53
2022-09-26T19:12:19.143Z,99412.16
2022-09-26T19:14:46.404Z,99403.44
2022-09-26T19:17:13.707Z,99407.88
2022-09-26T19:19:40.936Z,99407.03
2022-09-26T19:22:15.005Z,99418.47
2022-09-26T19:25:01.683Z,99412.41
2022-09-26T19:27:44.947Z,99412.41
2022-09-26T19:30:19.960Z,99417.75
2022-09-26T19:32:56.532Z,99421.44
2022-09-26T19:35:31.195Z,99425.84
2022-09-26T19:38:00.349Z,99421.66
2022-09-26T19:40:28.040Z,99427.03
2022-09-26T19:42:57.080Z,99429.88
2022-09-26T19:45:25.907Z,99431.66
2022-09-26T19:47:55.782Z,99440.47
2022-09-26T19:50:26.953Z,99432.72
2022-09-26T19:52:57.309Z,99437.84
2022-09-26T19:55:28.893Z,99434.53
2022-09-26T19:58:06.831Z,99436.44
2022-09-26T20:00:41.242Z,99430.34
2022-09-26T20:03:39.956Z,99440.09
2022-09-26T20:06:27.445Z,99437.50
2022-09-26T20:09:01.702Z,99438.53
2022-09-26T20:11:29.169Z,99443.06
2022-09-26T20:14:15.059Z,99441.59
2022-09-26T20:16:42.801Z,99438.25
2022-09-26T20:19:20.050Z,99442.06
2022-09-26T20:21:47.326Z,99466.59
2022-09-26T20:24:18.832Z,99458.00
2022-09-26T20:26:47.964Z,99466.81
2022-09-26T20:29:16.417Z,99458.09
2022-09-26T20:31:47.450Z,99466.81
2022-09-26T20:34:17.190Z,99460.84
2022-09-26T20:36:53.203Z,99456.69
2022-09-26T20:39:27.554Z,99455.81
2022-09-26T20:41:56.572Z,99468.81
2022-09-26T20:44:29.822Z,99462.03
2022-09-26T20:46:59.783Z,99464.53
2022-09-26T20:49:57.378Z,99472.38
2022-09-26T20:52:27.781Z,99467.97
2022-09-26T20:54:56.666Z,99469.78
2022-09-26T20:57:24.938Z,99466.28
2022-09-26T20:59:52.434Z,99469.03
2022-09-26T21:02:25.612Z,99468.31
2022-09-26T21:04:53.804Z,99472.84
2022-09-26T21:07:22.209Z,99466.88
2022-09-26T21:09:50.295Z,99468.66
2022-09-26T21:12:20.831Z,99473.19
2022-09-26T21:14:48.155Z,99462.81
2022-09-26T21:17:26.899Z,99470.69
2022-09-26T21:19:55.565Z,99464.59
2022-09-26T21:22:41.618Z,99460.31
2022-09-26T21:25:17.637Z,99470.78
2022-09-26T21:27:52.289Z,99471.00
2022-09-26T21:30:20.458Z,99469.56
2022-09-26T21:32:56.101Z,99476.06
2022-09-26T21:35:28.873Z,99479.00
2022-09-26T21:37:57.780Z,99478.53
2022-09-26T21:40:29.869Z,99479.69
2022-09-26T21:43:04.683Z,99475.84
2022-09-26T21:45:31.797Z,99480.22
2022-09-26T21:47:59.010Z,99478.69
2022-09-26T21:50:29.137Z,99475.31
2022-09-26T21:53:05.691Z,99486.88
2022-09-26T21:55:40.031Z,99485.19
2022-09-26T21:58:15.028Z,99480.28
2022-09-26T22:00:42.193Z,99480.28
2022-09-26T22:03:09.470Z,99479.69
2022-09-26T22:05:36.573Z,99480.59
2022-09-26T22:08:03.870Z,99480.72
2022-09-26T22:10:31.256Z,99478.94
2022-09-26T22:12:58.388Z,99476.19
2022-09-26T22:15:25.596Z,99477.06
2022-09-26T22:17:53.356Z,99467.44
2022-09-26T22:20:22.303Z,99477.06
2022-09-26T22:22:49.732Z,99470.25
2022-09-26T22:25:16.906Z,99472.88
2022-09-26T22:27:44.098Z,99461.59
2022-09-26T22:30:12.373Z,99464.31
2022-09-26T22:32:40.041Z,99466.19
2022-09-26T22:35:07.714Z,99468.19
2022-09-26T22:37:34.976Z,99460.34
2022-09-26T22:40:03.170Z,99460.34
2022-09-26T22:42:30.373Z,99458.56
2022-09-26T22:44:58.119Z,99449.88
2022-09-26T22:47:25.243Z,99452.72
2022-09-26T22:49:52.358Z,99459.97
2022-09-26T22:52:19.462Z,99461.09
2022-09-26T22:54:46.641Z,99454.41
2022-09-26T22:57:13.875Z,99467.69
2022-09-26T22:59:41.020Z,99470.44
2022-09-26T23:02:08.215Z,99461.16
2022-09-26T23:04:47.319Z,99462.06
2022-09-26T23:07:18.980Z,99467.50
2022-09-26T23:09:47.948Z,99464.28
2022-09-26T23:12:15.221Z,99465.44
2022-09-26T23:14:42.366Z,99479.25
2022-09-26T23:17:10.935Z,99481.97
2022-09-26T23:19:38.137Z,99478.59
2022-09-26T23:22:05.318Z,99466.41
2022-09-26T23:24:32.456Z,99471.63
2022-09-26T23:27:00.019Z,99470.06
2022-09-26T23:29:27.193Z,99477.06
2022-09-26T23:31:54.895Z,99473.69
2022-09-26T23:34:22.129Z,99481.44
2022-09-26T23:36:49.278Z,99478.00
2022-09-26T23:39:16.546Z,99471.94
2022-09-26T23:41:43.784Z,99478.09
2022-09-26T23:44:10.909Z,99475.59
2022-09-26T23:46:38.994Z,99479.13
2022-09-26T23:49:06.257Z,99472.16
2022-09-26T23:51:33.615Z,99475.59
2022-09-26T23:54:01.043Z,99479.13
2022-09-26T23:56:28.223Z,99484.25
2022-09-26T23:58:58.294Z,99484.25
